Time;durP1;ratioP1;P1;durP2;ratioP2;P2;SDS_P1;SDS_P2;PMS_P1;PMS_P2;Temp;Humidity;BMP_temperature;BMP_pressure;BME280_temperature;BME280_humidity;BME280_pressure;Samples;Min_cycle;Max_cycle;Signal;HPM_P1;HPM_P2
2021/03/29 00:00:16;;;;;;;15.77;13.03;;;;;21.70;101499.00;;;;2058845;28;20211;-45
2021/03/29 00:01:17;;;;;;;15.38;13.20;;;;;21.70;101627.00;;;;2066566;28;20658;-45
2021/03/29 00:02:17;;;;;;;15.20;13.30;;;;;21.70;101622.00;;;;2068719;28;20297;-42
2021/03/29 00:03:18;;;;;;;16.23;12.77;;;;;21.70;101623.00;;;;2069222;28;20218;-45
2021/03/29 00:04:18;;;;;;;17.30;12.47;;;;;21.70;101623.00;;;;2076698;28;20237;-41
2021/03/29 00:05:20;;;;;;;17.17;12.90;;;;;21.70;101625.00;;;;2069179;28;20215;-44
2021/03/29 00:06:21;;;;;;;14.43;12.48;;;;;21.70;101630.00;;;;2077262;28;20232;-44
2021/03/29 00:07:21;;;;;;;13.60;12.20;;;;;21.70;101632.00;;;;2069266;28;20306;-42
2021/03/29 00:08:23;;;;;;;14.90;12.10;;;;;21.70;101621.00;;;;2058619;28;20463;-42
2021/03/29 00:09:24;;;;;;;15.18;12.00;;;;;21.70;101617.00;;;;2069408;28;20215;-40
2021/03/29 00:10:25;;;;;;;14.65;12.35;;;;;21.70;101624.00;;;;2053991;28;20295;-42
2021/03/29 00:11:25;;;;;;;12.30;10.90;;;;;21.70;101618.00;;;;2066567;28;20223;-42
2021/03/29 00:12:25;;;;;;;15.40;11.83;;;;;21.70;101614.00;;;;2071583;28;20222;-43
2021/03/29 00:13:27;;;;;;;12.50;11.20;;;;;21.70;101609.00;;;;2069494;28;20215;-43
2021/03/29 00:14:27;;;;;;;15.93;12.07;;;;;21.70;101617.00;;;;2069505;28;20598;-42
2021/03/29 00:15:30;;;;;;;15.20;11.43;;;;;21.70;101615.00;;;;2053523;28;20295;-42
2021/03/29 00:16:30;;;;;;;13.77;10.93;;;;;21.70;101614.00;;;;2061702;28;20638;-43
2021/03/29 00:17:31;;;;;;;13.33;11.17;;;;;21.70;101619.00;;;;2069576;28;20289;-42
2021/03/29 00:18:31;;;;;;;12.53;11.03;;;;;21.70;101614.00;;;;2061002;28;20593;-42
2021/03/29 00:19:32;;;;;;;12.63;10.70;;;;;21.70;101624.00;;;;2069107;28;20627;-42
2021/03/29 00:20:33;;;;;;;12.27;9.73;;;;;21.70;101616.00;;;;2061373;28;20210;-43
2021/03/29 00:21:34;;;;;;;12.77;9.93;;;;;21.70;101605.00;;;;2059335;28;20204;-42
2021/03/29 00:22:34;;;;;;;12.23;9.93;;;;;21.70;101605.00;;;;2053342;28;20219;-41
2021/03/29 00:23:37;;;;;;;11.63;10.07;;;;;21.70;101605.00;;;;2058052;28;20216;-43
2021/03/29 00:24:37;;;;;;;11.52;9.95;;;;;21.70;101615.00;;;;2063128;28;20227;-43
2021/03/29 00:25:38;;;;;;;12.53;11.20;;;;;21.60;101607.00;;;;2055887;28;20250;-41
2021/03/29 00:26:38;;;;;;;14.13;10.10;;;;;21.70;101601.00;;;;2069231;28;20232;-42
2021/03/29 00:27:38;;;;;;;10.97;9.77;;;;;21.60;101617.00;;;;2068604;28;20309;-45
2021/03/29 00:28:39;;;;;;;13.40;10.17;;;;;21.70;101614.00;;;;2076985;28;20706;-42
2021/03/29 00:29:39;;;;;;;12.93;9.73;;;;;21.70;101614.00;;;;2078074;28;20540;-42
2021/03/29 00:30:42;;;;;;;11.80;8.83;;;;;21.70;101612.00;;;;2077041;28;20210;-42
2021/03/29 00:31:43;;;;;;;12.32;9.93;;;;;21.60;101616.00;;;;2077377;28;20222;-45
2021/03/29 00:32:43;;;;;;;12.57;9.93;;;;;21.60;101612.00;;;;2078107;28;20331;-42
2021/03/29 00:33:43;;;;;;;11.40;9.20;;;;;21.60;101608.00;;;;2061265;28;20343;-43
2021/03/29 00:34:44;;;;;;;11.97;9.67;;;;;21.60;101605.00;;;;2069462;28;20210;-41
2021/03/29 00:35:46;;;;;;;10.87;8.57;;;;;21.70;101612.00;;;;2061379;28;20270;-41
2021/03/29 00:36:47;;;;;;;9.68;8.63;;;;;21.70;101609.00;;;;2059639;28;20215;-41
2021/03/29 00:37:49;;;;;;;9.70;8.67;;;;;21.60;101608.00;;;;2069327;28;20211;-43
2021/03/29 00:38:50;;;;;;;11.60;8.82;;;;;21.60;101616.00;;;;2072639;28;20453;-44
2021/03/29 00:39:50;;;;;;;9.82;8.15;;;;;21.60;101613.00;;;;2067497;28;20222;-40
2021/03/29 00:40:53;;;;;;;9.70;8.70;;;;;21.60;101612.00;;;;2067544;28;20232;-45
2021/03/29 00:41:54;;;;;;;10.38;8.80;;;;;21.60;101616.00;;;;2071421;28;20214;-43
2021/03/29 00:43:11;;;;;;;11.73;8.17;;;;;21.60;101617.00;;;;2069232;28;20289;-42
2021/03/29 00:44:12;;;;;;;9.35;8.35;;;;;21.60;101616.00;;;;2075347;28;20221;-41
2021/03/29 00:45:14;;;;;;;11.17;8.43;;;;;21.60;101619.00;;;;2077520;28;20298;-42
2021/03/29 00:46:15;;;;;;;10.10;7.85;;;;;21.60;101624.00;;;;2068698;28;20219;-42
2021/03/29 00:47:16;;;;;;;10.38;8.30;;;;;21.60;101625.00;;;;2064285;28;20228;-42
2021/03/29 00:48:17;;;;;;;11.57;8.70;;;;;21.60;101621.00;;;;2063339;28;20227;-44
2021/03/29 00:49:17;;;;;;;10.98;7.80;;;;;21.60;101623.00;;;;2065749;28;20724;-44
2021/03/29 00:50:30;;;;;;;8.43;7.30;;;;;21.60;101615.00;;;;2077447;28;20268;-44
2021/03/29 00:51:32;;;;;;;10.63;8.38;;;;;21.60;101624.00;;;;2077289;28;20222;-41
2021/03/29 00:52:32;;;;;;;10.15;7.90;;;;;21.60;101625.00;;;;2077912;28;20210;-41
2021/03/29 00:53:33;;;;;;;8.50;7.10;;;;;21.60;101615.00;;;;2069276;28;20203;-42
2021/03/29 00:54:34;;;;;;;11.20;8.00;;;;;21.60;101617.00;;;;2069227;28;20690;-41
2021/03/29 00:55:34;;;;;;;9.80;7.90;;;;;21.60;101622.00;;;;2068963;28;20618;-41
2021/03/29 00:56:35;;;;;;;9.00;7.93;;;;;21.60;101621.00;;;;2069163;28;20314;-45
2021/03/29 00:57:36;;;;;;;8.23;7.43;;;;;21.60;101622.00;;;;2069441;28;20221;-43
2021/03/29 00:58:37;;;;;;;9.15;7.22;;;;;21.60;101616.00;;;;2068650;28;20223;-41
2021/03/29 00:59:37;;;;;;;8.80;7.20;;;;;21.60;101608.00;;;;2077294;28;20220;-41
2021/03/29 01:00:46;;;;;;;8.60;7.50;;;;;21.60;101616.00;;;;2077339;28;20210;-44
2021/03/29 01:01:48;;;;;;;8.80;7.68;;;;;21.60;101608.00;;;;2078121;28;22278;-41
2021/03/29 01:02:48;;;;;;;9.82;7.05;;;;;21.50;101623.00;;;;2068379;28;20218;-42
2021/03/29 01:04:01;;;;;;;8.07;6.67;;;;;21.50;101619.00;;;;2058827;28;20250;-41
2021/03/29 01:05:14;;;;;;;8.50;7.07;;;;;21.50;101615.00;;;;2077986;28;20283;-45
2021/03/29 01:06:18;;;;;;;7.75;6.68;;;;;21.50;101612.00;;;;2079470;28;20731;-43
2021/03/29 01:07:19;;;;;;;7.75;6.63;;;;;21.60;101602.00;;;;2069253;28;20710;-41
2021/03/29 01:08:20;;;;;;;8.40;6.90;;;;;21.50;101612.00;;;;2057263;28;20223;-45
2021/03/29 01:09:24;;;;;;;8.67;6.90;;;;;21.50;101606.00;;;;2068481;28;20458;-44
2021/03/29 01:10:24;;;;;;;7.75;6.00;;;;;21.60;101615.00;;;;2069133;28;20215;-42
2021/03/29 01:11:29;;;;;;;9.30;6.70;;;;;21.50;101607.00;;;;2076267;28;20218;-41
2021/03/29 01:12:29;;;;;;;9.15;6.70;;;;;21.50;101604.00;;;;2072288;28;20249;-43
2021/03/29 01:13:29;;;;;;;10.07;6.80;;;;;21.50;101601.00;;;;2075601;28;20287;-44
2021/03/29 01:14:33;;;;;;;7.40;5.97;;;;;21.50;101589.00;;;;2068418;28;20215;-41
2021/03/29 01:15:34;;;;;;;7.90;6.20;;;;;21.50;101593.00;;;;2060971;28;20212;-41
2021/03/29 01:16:45;;;;;;;8.60;6.07;;;;;21.50;101605.00;;;;2058022;28;20224;-44
2021/03/29 01:17:45;;;;;;;8.35;6.20;;;;;21.50;101601.00;;;;2057142;28;20244;-43
2021/03/29 01:18:46;;;;;;;8.73;6.30;;;;;21.50;101609.00;;;;2053735;28;20238;-47
2021/03/29 01:19:48;;;;;;;8.45;6.30;;;;;21.50;101601.00;;;;2074362;28;20272;-42
2021/03/29 01:20:51;;;;;;;6.97;6.25;;;;;21.50;101605.00;;;;2066181;28;21095;-43
2021/03/29 01:22:05;;;;;;;8.60;6.50;;;;;21.50;101585.00;;;;2076301;28;20721;-41
2021/03/29 01:23:06;;;;;;;8.63;6.15;;;;;21.50;101604.00;;;;2076269;28;20718;-45
2021/03/29 01:24:33;;;;;;;7.30;6.00;;;;;21.50;101603.00;;;;2068607;28;20225;-44
2021/03/29 01:25:46;;;;;;;9.30;6.00;;;;;21.50;101625.00;;;;2077417;28;20222;-44
2021/03/29 01:26:46;;;;;;;8.02;6.20;;;;;21.30;101606.00;;;;2077472;28;20908;-43
2021/03/29 01:27:48;;;;;;;7.20;5.57;;;;;21.50;101601.00;;;;2076833;28;20282;-43
2021/03/29 01:28:48;;;;;;;6.90;5.88;;;;;21.50;101608.00;;;;2077100;28;20255;-43
2021/03/29 01:29:49;;;;;;;6.80;5.40;;;;;21.50;101607.00;;;;2068942;28;20707;-43
2021/03/29 01:30:49;;;;;;;7.03;5.80;;;;;21.50;101590.00;;;;2068430;28;20797;-43
2021/03/29 01:31:50;;;;;;;6.00;5.27;;;;;21.50;101602.00;;;;2076942;28;20210;-43
2021/03/29 01:32:50;;;;;;;6.83;5.50;;;;;21.50;101606.00;;;;2077291;28;20297;-43
2021/03/29 01:33:51;;;;;;;7.20;4.90;;;;;21.50;101604.00;;;;2077467;28;20214;-42
2021/03/29 01:34:51;;;;;;;6.10;5.47;;;;;21.50;101596.00;;;;2077173;28;20284;-43
2021/03/29 01:35:54;;;;;;;6.50;5.20;;;;;21.50;101592.00;;;;2061704;28;20218;-42
2021/03/29 01:36:55;;;;;;;9.02;6.00;;;;;21.50;101579.00;;;;2069242;28;20218;-43
2021/03/29 01:37:55;;;;;;;6.50;5.53;;;;;21.40;101588.00;;;;2061095;28;20284;-43
2021/03/29 01:38:56;;;;;;;7.67;5.60;;;;;21.40;101585.00;;;;2068985;28;20231;-44
2021/03/29 01:39:56;;;;;;;5.57;5.00;;;;;21.50;101581.00;;;;2069082;28;20896;-43
2021/03/29 01:40:59;;;;;;;6.00;5.30;;;;;21.40;101587.00;;;;2060363;28;20760;-43
2021/03/29 01:42:00;;;;;;;6.57;4.90;;;;;21.50;101583.00;;;;2065612;28;20261;-43
2021/03/29 01:43:00;;;;;;;6.17;5.30;;;;;21.50;101589.00;;;;2076097;28;20734;-43
2021/03/29 01:44:00;;;;;;;6.80;5.20;;;;;21.40;101589.00;;;;2068629;28;20242;-42
2021/03/29 01:45:01;;;;;;;6.00;4.87;;;;;21.50;101591.00;;;;2053218;28;20222;-43
2021/03/29 01:46:02;;;;;;;7.23;5.10;;;;;21.40;101596.00;;;;2076299;28;20909;-43
2021/03/29 01:47:04;;;;;;;6.60;5.17;;;;;21.50;101593.00;;;;2071368;28;20466;-43
2021/03/29 01:48:06;;;;;;;6.90;5.18;;;;;21.50;101586.00;;;;2068614;28;20494;-44
2021/03/29 01:49:06;;;;;;;6.30;5.15;;;;;21.40;101592.00;;;;2062583;28;20219;-43
2021/03/29 01:50:08;;;;;;;5.70;4.87;;;;;21.40;101586.00;;;;2061096;28;20235;-43
2021/03/29 01:51:09;;;;;;;5.53;4.93;;;;;21.40;101581.00;;;;2068273;28;20214;-43
2021/03/29 01:52:09;;;;;;;6.90;5.03;;;;;21.40;101586.00;;;;2051283;28;20553;-43
2021/03/29 01:53:10;;;;;;;6.30;5.00;;;;;21.40;101589.00;;;;2053174;28;20463;-43
2021/03/29 01:54:11;;;;;;;5.93;4.90;;;;;21.40;101583.00;;;;2060013;28;20204;-43
2021/03/29 01:55:11;;;;;;;6.93;5.17;;;;;21.40;101589.00;;;;2060349;28;20466;-42
2021/03/29 01:56:12;;;;;;;7.00;4.87;;;;;21.40;101586.00;;;;2064986;28;20297;-43
2021/03/29 01:57:12;;;;;;;6.70;4.97;;;;;21.40;101592.00;;;;2060464;28;20699;-43
2021/03/29 01:58:13;;;;;;;6.30;4.80;;;;;21.40;101593.00;;;;2075802;28;20845;-44
2021/03/29 01:59:13;;;;;;;6.13;4.50;;;;;21.40;101605.00;;;;2076891;28;20217;-44
2021/03/29 02:00:41;;;;;;;6.87;4.57;;;;;21.40;101595.00;;;;2068975;28;20217;-43
2021/03/29 02:01:41;;;;;;;7.03;4.65;;;;;21.40;101593.00;;;;2073134;28;20583;-42
2021/03/29 02:02:42;;;;;;;6.70;4.63;;;;;21.40;101590.00;;;;2077439;28;20224;-43
2021/03/29 02:03:43;;;;;;;5.90;4.70;;;;;21.40;101599.00;;;;2077026;28;20225;-43
2021/03/29 02:04:43;;;;;;;8.03;5.23;;;;;21.20;101602.00;;;;2068468;28;20226;-44
2021/03/29 02:05:43;;;;;;;6.23;4.70;;;;;21.40;101588.00;;;;2076918;28;20464;-46
2021/03/29 02:06:44;;;;;;;7.57;4.27;;;;;21.40;101592.00;;;;2068795;28;20219;-43
2021/03/29 02:07:44;;;;;;;5.50;4.33;;;;;21.40;101589.00;;;;2068124;28;20218;-43
2021/03/29 02:08:45;;;;;;;6.77;5.27;;;;;21.40;101597.00;;;;2060890;28;20220;-42
2021/03/29 02:09:45;;;;;;;6.47;4.37;;;;;21.40;101585.00;;;;2060448;28;20612;-43
2021/03/29 02:10:46;;;;;;;6.40;4.90;;;;;21.40;101595.00;;;;2067447;28;20218;-42
2021/03/29 02:11:46;;;;;;;5.53;3.70;;;;;21.40;101596.00;;;;2060280;28;20219;-43
2021/03/29 02:12:46;;;;;;;6.17;4.50;;;;;21.40;101599.00;;;;2060207;28;20286;-43
2021/03/29 02:13:49;;;;;;;5.07;4.57;;;;;21.40;101598.00;;;;2064726;28;20207;-44
2021/03/29 02:14:49;;;;;;;5.32;4.63;;;;;21.40;101585.00;;;;2054398;28;20706;-44
2021/03/29 02:15:51;;;;;;;6.13;4.47;;;;;21.40;101591.00;;;;2052488;28;20223;-43
2021/03/29 02:16:52;;;;;;;5.13;4.20;;;;;21.40;101588.00;;;;2066790;28;20692;-43
2021/03/29 02:18:00;;;;;;;7.03;4.70;;;;;21.40;101595.00;;;;2068380;28;20233;-43
2021/03/29 02:19:02;;;;;;;6.40;4.50;;;;;21.40;101590.00;;;;2074865;28;20915;-44
2021/03/29 02:20:08;;;;;;;5.18;3.88;;;;;21.40;101594.00;;;;2066206;28;20219;-44
2021/03/29 02:21:11;;;;;;;6.45;4.20;;;;;21.40;101599.00;;;;2068225;28;20300;-43
2021/03/29 02:22:11;;;;;;;4.25;3.70;;;;;21.40;101594.00;;;;2059743;28;20216;-43
2021/03/29 02:23:12;;;;;;;7.93;4.57;;;;;21.40;101595.00;;;;2052127;28;20222;-44
2021/03/29 02:24:12;;;;;;;4.63;3.80;;;;;21.30;101606.00;;;;2051406;28;20254;-43
2021/03/29 02:25:13;;;;;;;4.20;3.77;;;;;21.40;101601.00;;;;2062454;28;20310;-43
2021/03/29 02:26:13;;;;;;;5.50;4.33;;;;;21.40;101599.00;;;;2069081;28;20211;-43
2021/03/29 02:27:13;;;;;;;5.40;3.80;;;;;21.30;101599.00;;;;2060890;28;20219;-44
2021/03/29 02:28:14;;;;;;;5.43;4.00;;;;;21.40;101588.00;;;;2069895;28;20217;-43
2021/03/29 02:29:21;;;;;;;5.93;4.40;;;;;21.30;101604.00;;;;2070355;28;20240;-44
2021/03/29 02:30:24;;;;;;;4.82;3.53;;;;;21.30;101592.00;;;;2071212;28;20218;-42
2021/03/29 02:31:25;;;;;;;5.55;3.88;;;;;21.30;101604.00;;;;2078011;28;20205;-43
2021/03/29 02:32:26;;;;;;;5.45;3.92;;;;;21.30;101598.00;;;;2079176;28;20217;-42
2021/03/29 02:33:26;;;;;;;5.33;4.10;;;;;21.30;101600.00;;;;2077601;28;20213;-42
2021/03/29 02:34:26;;;;;;;5.57;3.90;;;;;21.40;101590.00;;;;2074007;28;20306;-44
2021/03/29 02:35:27;;;;;;;3.90;3.47;;;;;21.40;101600.00;;;;2065044;28;20211;-43
2021/03/29 02:36:27;;;;;;;6.03;3.73;;;;;21.30;101597.00;;;;2056119;28;20224;-42
2021/03/29 02:37:27;;;;;;;6.60;4.00;;;;;21.40;101592.00;;;;2061986;28;20757;-43
2021/03/29 02:38:28;;;;;;;7.37;4.47;;;;;21.30;101587.00;;;;2070555;28;20221;-44
2021/03/29 02:39:29;;;;;;;4.63;3.63;;;;;21.30;101594.00;;;;2065204;28;20215;-43
2021/03/29 02:40:29;;;;;;;5.53;3.70;;;;;21.30;101595.00;;;;2070256;28;20634;-43
2021/03/29 02:41:30;;;;;;;4.87;3.63;;;;;21.30;101591.00;;;;2070125;28;20237;-43
2021/03/29 02:42:32;;;;;;;5.93;4.20;;;;;21.30;101597.00;;;;2070935;28;20214;-43
2021/03/29 02:43:32;;;;;;;5.20;3.58;;;;;21.30;101591.00;;;;2062022;28;20459;-43
2021/03/29 02:44:33;;;;;;;6.13;4.27;;;;;21.30;101598.00;;;;2062532;28;20243;-42
2021/03/29 02:45:35;;;;;;;5.77;4.20;;;;;21.30;101592.00;;;;2070584;28;20643;-43
2021/03/29 02:46:36;;;;;;;6.82;4.07;;;;;21.30;101582.00;;;;2075109;28;20962;-43
2021/03/29 02:47:42;;;;;;;5.40;4.00;;;;;21.30;101601.00;;;;2078231;28;20218;-44
2021/03/29 02:48:44;;;;;;;5.15;3.55;;;;;21.30;101599.00;;;;2078524;28;20283;-43
2021/03/29 02:49:44;;;;;;;4.22;3.58;;;;;21.30;101590.00;;;;2077437;28;20248;-43
2021/03/29 02:50:46;;;;;;;4.83;3.63;;;;;21.30;101591.00;;;;2068933;28;20206;-43
2021/03/29 02:51:46;;;;;;;4.85;3.88;;;;;21.30;101594.00;;;;2077598;28;20721;-43
2021/03/29 02:52:48;;;;;;;4.33;3.20;;;;;21.30;101601.00;;;;2069231;28;20214;-46
2021/03/29 02:53:50;;;;;;;5.05;3.50;;;;;21.30;101600.00;;;;2070093;28;20234;-44
2021/03/29 02:54:50;;;;;;;3.95;3.33;;;;;21.30;101602.00;;;;2069760;28;20234;-43
2021/03/29 02:55:51;;;;;;;6.30;3.80;;;;;21.30;101590.00;;;;2070039;28;20951;-43
2021/03/29 02:56:52;;;;;;;5.20;3.30;;;;;21.30;101603.00;;;;2069894;28;20218;-44
2021/03/29 02:57:53;;;;;;;5.10;3.67;;;;;21.30;101603.00;;;;2070012;28;20223;-43
2021/03/29 02:58:56;;;;;;;6.00;3.27;;;;;21.30;101604.00;;;;2077699;28;20221;-43
2021/03/29 02:59:57;;;;;;;5.28;3.70;;;;;21.30;101596.00;;;;2077556;28;20210;-43
2021/03/29 03:00:57;;;;;;;5.60;3.70;;;;;21.30;101604.00;;;;2076742;28;20221;-43
2021/03/29 03:01:58;;;;;;;5.70;3.70;;;;;21.30;101597.00;;;;2077915;28;20229;-43
2021/03/29 03:02:59;;;;;;;4.90;3.50;;;;;21.30;101603.00;;;;2069858;28;20222;-43
2021/03/29 03:04:00;;;;;;;5.38;3.35;;;;;21.30;101594.00;;;;2074871;28;20283;-43
2021/03/29 03:05:00;;;;;;;5.57;3.63;;;;;21.30;101589.00;;;;2073274;28;20304;-43
2021/03/29 03:06:00;;;;;;;4.73;3.20;;;;;21.20;101597.00;;;;2055888;28;21060;-43
2021/03/29 03:07:01;;;;;;;5.90;3.10;;;;;21.30;101601.00;;;;2063372;28;20298;-44
2021/03/29 03:08:02;;;;;;;4.40;2.97;;;;;21.20;101599.00;;;;2069987;28;20298;-43
2021/03/29 03:09:05;;;;;;;5.63;3.73;;;;;21.20;101601.00;;;;2078364;28;20226;-43
2021/03/29 03:10:11;;;;;;;6.75;3.50;;;;;21.20;101605.00;;;;2078930;28;20320;-43
2021/03/29 03:11:11;;;;;;;4.88;2.95;;;;;21.30;101592.00;;;;2078699;28;20275;-43
2021/03/29 03:12:11;;;;;;;3.80;3.10;;;;;21.30;101592.00;;;;2078889;28;20294;-42
2021/03/29 03:13:12;;;;;;;4.53;3.80;;;;;21.30;101588.00;;;;2078405;28;20218;-43
2021/03/29 03:14:12;;;;;;;4.00;3.53;;;;;21.20;101601.00;;;;2078387;28;20209;-44
2021/03/29 03:15:18;;;;;;;3.73;3.00;;;;;21.20;101593.00;;;;2073953;28;20587;-43
2021/03/29 03:16:18;;;;;;;4.45;3.20;;;;;21.20;101589.00;;;;2077927;28;20762;-43
2021/03/29 03:17:19;;;;;;;4.90;2.97;;;;;21.20;101599.00;;;;2069815;28;20214;-43
2021/03/29 03:18:19;;;;;;;4.30;3.00;;;;;21.30;101595.00;;;;2069195;28;20214;-43
2021/03/29 03:19:19;;;;;;;4.30;3.07;;;;;21.20;101605.00;;;;2077918;28;20324;-43
2021/03/29 03:20:20;;;;;;;5.80;3.40;;;;;21.20;101604.00;;;;2077754;28;20214;-43
2021/03/29 03:21:20;;;;;;;4.30;3.40;;;;;21.20;101607.00;;;;2077702;28;20757;-43
2021/03/29 03:22:21;;;;;;;6.13;3.00;;;;;21.20;101618.00;;;;2078136;28;20217;-43
2021/03/29 03:23:21;;;;;;;5.03;3.10;;;;;21.20;101613.00;;;;2078537;28;20922;-43
2021/03/29 03:24:31;;;;;;;4.63;3.23;;;;;21.20;101608.00;;;;2078487;28;20695;-44
2021/03/29 03:25:46;;;;;;;4.50;2.85;;;;;21.20;101612.00;;;;2077125;28;20222;-43
2021/03/29 03:26:47;;;;;;;3.78;3.10;;;;;21.20;101606.00;;;;2070031;28;20209;-44
2021/03/29 03:27:47;;;;;;;4.80;3.03;;;;;21.20;101612.00;;;;2085666;28;20563;-43
2021/03/29 03:28:49;;;;;;;3.77;2.80;;;;;21.20;101604.00;;;;2078363;28;20686;-44
2021/03/29 03:29:49;;;;;;;4.00;2.92;;;;;21.20;101609.00;;;;2077136;28;20718;-43
2021/03/29 03:30:51;;;;;;;5.67;3.20;;;;;21.20;101609.00;;;;2076499;28;20225;-44
2021/03/29 03:31:51;;;;;;;5.13;3.13;;;;;21.20;101602.00;;;;2078412;28;20245;-44
2021/03/29 03:32:52;;;;;;;5.00;2.87;;;;;21.20;101606.00;;;;2078090;28;20227;-43
2021/03/29 03:33:54;;;;;;;4.77;2.97;;;;;21.20;101605.00;;;;2074224;28;20210;-43
2021/03/29 03:34:54;;;;;;;3.60;3.03;;;;;21.20;101601.00;;;;2072469;28;20698;-42
2021/03/29 03:35:54;;;;;;;4.00;2.70;;;;;21.20;101594.00;;;;2071299;28;20262;-43
2021/03/29 03:36:55;;;;;;;3.10;2.77;;;;;21.20;101605.00;;;;2062005;28;20228;-44
2021/03/29 03:38:05;;;;;;;3.60;3.30;;;;;21.20;101608.00;;;;2061171;28;20274;-43
2021/03/29 03:39:05;;;;;;;4.53;3.00;;;;;21.20;101607.00;;;;2069325;28;20270;-43
2021/03/29 03:40:06;;;;;;;3.20;2.53;;;;;21.20;101601.00;;;;2058461;28;20686;-42
2021/03/29 03:41:29;;;;;;;4.50;3.00;;;;;21.20;101614.00;;;;2052710;28;20311;-45
2021/03/29 03:42:29;;;;;;;3.25;2.95;;;;;21.20;101607.00;;;;2055153;28;20603;-44
2021/03/29 03:43:34;;;;;;;4.27;2.87;;;;;21.20;101601.00;;;;2061328;28;20222;-44
2021/03/29 03:44:35;;;;;;;5.90;3.00;;;;;21.20;101614.00;;;;2069269;28;20227;-43
2021/03/29 03:45:39;;;;;;;3.80;2.70;;;;;21.20;101607.00;;;;2059593;28;20223;-43
2021/03/29 03:46:40;;;;;;;4.25;2.63;;;;;21.20;101603.00;;;;2061562;28;20207;-43
2021/03/29 03:47:40;;;;;;;4.30;2.43;;;;;21.20;101597.00;;;;2061369;28;20246;-43
2021/03/29 03:48:41;;;;;;;4.83;2.47;;;;;21.20;101606.00;;;;2061417;28;20570;-42
2021/03/29 03:49:42;;;;;;;3.90;3.10;;;;;21.20;101605.00;;;;2060811;28;20222;-46
2021/03/29 03:50:46;;;;;;;2.70;2.40;;;;;21.20;101594.00;;;;2052396;28;20451;-44
2021/03/29 03:51:47;;;;;;;3.45;2.80;;;;;21.10;101600.00;;;;2060649;28;25139;-43
2021/03/29 03:52:47;;;;;;;3.50;2.50;;;;;21.20;101603.00;;;;2069338;28;20227;-43
2021/03/29 03:53:48;;;;;;;4.47;2.93;;;;;21.20;101603.00;;;;2069185;28;20257;-43
2021/03/29 03:54:48;;;;;;;5.23;2.80;;;;;21.20;101601.00;;;;2069390;28;20616;-43
2021/03/29 03:55:52;;;;;;;5.10;2.67;;;;;21.20;101602.00;;;;2061687;28;20281;-44
2021/03/29 03:56:52;;;;;;;3.38;2.53;;;;;21.20;101598.00;;;;2060719;28;20215;-43
2021/03/29 03:57:53;;;;;;;5.97;2.50;;;;;21.20;101599.00;;;;2061701;28;20853;-45
2021/03/29 03:58:53;;;;;;;3.67;2.70;;;;;21.20;101605.00;;;;2061526;28;20238;-42
2021/03/29 03:59:53;;;;;;;4.77;2.67;;;;;21.20;101605.00;;;;2068991;28;20215;-43
2021/03/29 04:00:55;;;;;;;3.60;2.73;;;;;21.20;101605.00;;;;2076643;28;20360;-44
2021/03/29 04:02:00;;;;;;;3.70;2.78;;;;;21.20;101609.00;;;;2069235;28;20213;-44
2021/03/29 04:03:01;;;;;;;3.33;2.45;;;;;21.20;101614.00;;;;2069675;28;20215;-44
2021/03/29 04:04:01;;;;;;;4.43;2.40;;;;;21.20;101615.00;;;;2077009;28;20217;-42
2021/03/29 04:05:05;;;;;;;3.43;2.40;;;;;21.20;101604.00;;;;2069958;28;20215;-43
2021/03/29 04:06:05;;;;;;;3.78;2.35;;;;;21.10;101607.00;;;;2069555;28;20215;-43
2021/03/29 04:07:06;;;;;;;3.30;2.27;;;;;21.10;101598.00;;;;2069827;28;20203;-42
2021/03/29 04:08:07;;;;;;;2.60;1.97;;;;;21.10;101602.00;;;;2071046;28;20214;-42
2021/03/29 04:09:07;;;;;;;3.53;2.47;;;;;21.10;101603.00;;;;2070183;28;20210;-43
2021/03/29 04:11:16;;;;;;;3.53;2.15;;;;;21.10;101593.00;;;;2074641;28;20206;-43
2021/03/29 04:12:17;;;;;;;2.90;2.13;;;;;21.10;101597.00;;;;2077729;28;20297;-43
2021/03/29 04:14:23;;;;;;;4.22;2.60;;;;;21.10;101597.00;;;;2077751;28;20210;-43
2021/03/29 04:15:23;;;;;;;4.37;2.70;;;;;21.10;101606.00;;;;2077898;28;20238;-43
2021/03/29 04:16:24;;;;;;;4.47;2.40;;;;;21.10;101602.00;;;;2077871;28;20214;-44
2021/03/29 04:17:24;;;;;;;2.87;2.30;;;;;21.10;101606.00;;;;2077758;28;20564;-43
2021/03/29 04:18:25;;;;;;;3.37;2.30;;;;;21.10;101601.00;;;;2077767;28;21405;-43
2021/03/29 04:19:25;;;;;;;5.17;2.50;;;;;20.80;101606.00;;;;2077503;28;20583;-43
2021/03/29 04:20:26;;;;;;;3.70;2.40;;;;;21.10;101603.00;;;;2077577;28;20535;-43
2021/03/29 04:21:26;;;;;;;3.63;2.50;;;;;21.10;101601.00;;;;2068954;28;20305;-43
2021/03/29 04:22:26;;;;;;;3.90;2.10;;;;;21.10;101616.00;;;;2070201;28;20696;-43
2021/03/29 04:23:29;;;;;;;3.37;2.20;;;;;21.10;101612.00;;;;2070309;28;20815;-44
2021/03/29 04:24:29;;;;;;;2.47;2.10;;;;;21.10;101603.00;;;;2070230;28;20309;-43
2021/03/29 04:25:30;;;;;;;2.90;2.03;;;;;21.00;101605.00;;;;2070173;28;20215;-41
2021/03/29 04:26:30;;;;;;;3.20;2.20;;;;;21.10;101602.00;;;;2070152;28;20256;-43
2021/03/29 04:27:30;;;;;;;2.97;2.30;;;;;21.10;101600.00;;;;2069751;28;20242;-43
2021/03/29 04:28:31;;;;;;;3.40;2.30;;;;;21.10;101608.00;;;;2069831;28;20239;-43
2021/03/29 04:29:31;;;;;;;3.20;2.33;;;;;21.10;101616.00;;;;2070029;28;20215;-43
2021/03/29 04:30:31;;;;;;;3.87;2.60;;;;;21.10;101607.00;;;;2068165;28;20222;-43
2021/03/29 04:31:32;;;;;;;3.27;2.10;;;;;21.10;101616.00;;;;2069511;28;20845;-43
2021/03/29 04:32:33;;;;;;;2.97;2.58;;;;;21.10;101603.00;;;;2070122;28;20210;-43
2021/03/29 04:33:33;;;;;;;2.93;2.10;;;;;21.10;101612.00;;;;2069778;28;20657;-44
2021/03/29 04:34:33;;;;;;;2.87;2.00;;;;;21.10;101607.00;;;;2070513;28;20241;-44
2021/03/29 04:35:34;;;;;;;3.23;1.73;;;;;21.10;101612.00;;;;2067400;28;20222;-43
2021/03/29 04:36:35;;;;;;;3.38;2.05;;;;;21.10;101614.00;;;;2072999;28;20214;-43
2021/03/29 04:37:35;;;;;;;4.00;2.10;;;;;21.10;101600.00;;;;2071558;28;20646;-44
2021/03/29 04:38:35;;;;;;;3.77;2.30;;;;;21.10;101606.00;;;;2069660;28;20897;-43
2021/03/29 04:39:36;;;;;;;3.30;2.40;;;;;21.10;101619.00;;;;2070193;28;20679;-46
2021/03/29 04:40:36;;;;;;;3.40;2.10;;;;;21.10;101618.00;;;;2069734;28;20310;-44
2021/03/29 04:41:36;;;;;;;3.23;2.23;;;;;21.10;101614.00;;;;2069001;28;20756;-43
2021/03/29 04:42:37;;;;;;;3.20;2.07;;;;;21.10;101606.00;;;;2069422;28;20699;-43
2021/03/29 04:43:37;;;;;;;3.23;1.93;;;;;21.10;101609.00;;;;2070062;28;20288;-46
2021/03/29 04:44:37;;;;;;;4.20;1.93;;;;;21.10;101617.00;;;;2069288;28;20222;-45
2021/03/29 04:45:38;;;;;;;4.83;2.50;;;;;21.10;101609.00;;;;2078395;28;20210;-44
2021/03/29 04:46:38;;;;;;;3.30;2.23;;;;;21.10;101612.00;;;;2070046;28;20221;-43
2021/03/29 04:47:38;;;;;;;3.00;2.33;;;;;21.10;101613.00;;;;2085406;28;20268;-43
2021/03/29 04:48:39;;;;;;;4.47;2.07;;;;;21.00;101609.00;;;;2085499;28;20229;-44
2021/03/29 04:49:41;;;;;;;3.30;2.20;;;;;21.10;101607.00;;;;2078015;28;20292;-44
2021/03/29 04:50:41;;;;;;;3.83;2.42;;;;;21.00;101612.00;;;;2077181;28;20214;-43
2021/03/29 04:51:42;;;;;;;3.00;1.97;;;;;21.00;101619.00;;;;2077389;28;20214;-42
2021/03/29 04:52:42;;;;;;;3.80;2.20;;;;;21.10;101612.00;;;;2078061;28;20206;-42
2021/03/29 04:53:42;;;;;;;4.50;2.40;;;;;21.00;101619.00;;;;2078163;28;20228;-43
2021/03/29 04:54:43;;;;;;;5.20;2.60;;;;;21.00;101612.00;;;;2078127;28;20225;-43
2021/03/29 04:55:43;;;;;;;5.77;2.20;;;;;21.00;101620.00;;;;2078100;28;20218;-43
2021/03/29 04:56:43;;;;;;;5.53;2.30;;;;;21.10;101615.00;;;;2078407;28;20241;-44
2021/03/29 04:57:44;;;;;;;3.33;1.67;;;;;21.00;101619.00;;;;2078144;28;20210;-45
2021/03/29 04:58:44;;;;;;;5.63;2.13;;;;;21.00;101612.00;;;;2077885;28;20214;-43
2021/03/29 04:59:44;;;;;;;4.00;2.10;;;;;21.00;101635.00;;;;2077966;28;20855;-43
2021/03/29 05:00:45;;;;;;;3.03;1.97;;;;;21.00;101618.00;;;;2077344;28;20652;-44
2021/03/29 05:01:46;;;;;;;3.63;2.17;;;;;21.00;101619.00;;;;2077804;28;20618;-43
2021/03/29 05:02:46;;;;;;;2.60;1.90;;;;;21.00;101627.00;;;;2078098;28;20283;-43
2021/03/29 05:03:46;;;;;;;3.37;1.80;;;;;21.00;101633.00;;;;2078158;28;20448;-43
2021/03/29 05:04:47;;;;;;;2.40;1.80;;;;;21.00;101626.00;;;;2077568;28;20253;-42
2021/03/29 05:05:47;;;;;;;3.27;1.80;;;;;21.10;101645.00;;;;2073396;28;20264;-43